Time;durP1;ratioP1;P1;durP2;ratioP2;P2;SDS_P1;SDS_P2;PMS_P1;PMS_P2;Temp;Humidity;BMP_temperature;BMP_pressure;BME280_temperature;BME280_humidity;BME280_pressure;Samples;Min_cycle;Max_cycle;Signal;HPM_P1;HPM_P2
2022/05/09 00:03:01;;;;;;;;;;;22.90;47.40;;;;;;6188662;28;20872;-51
2022/05/09 00:06:02;;;;;;;;;;;23.20;47.60;;;;;;6189193;28;19996;-53
2022/05/09 00:09:06;;;;;;;;;;;22.80;47.40;;;;;;6191450;28;19933;-55
2022/05/09 00:12:08;;;;;;;;;;;22.90;47.40;;;;;;6173860;28;20039;-53
2022/05/09 00:15:10;;;;;;;;;;;22.80;47.30;;;;;;6190427;28;21326;-54
2022/05/09 00:18:12;;;;;;;;;;;23.20;47.50;;;;;;6185208;28;20014;-52
2022/05/09 00:21:14;;;;;;;;;;;23.20;47.60;;;;;;6170467;28;20702;-54
2022/05/09 00:24:17;;;;;;;;;;;22.90;47.50;;;;;;6192000;28;20078;-52
2022/05/09 00:27:20;;;;;;;;;;;22.70;47.30;;;;;;6187692;28;19936;-51
2022/05/09 00:30:22;;;;;;;;;;;23.00;47.40;;;;;;6189131;28;19921;-50
2022/05/09 00:33:24;;;;;;;;;;;22.80;47.40;;;;;;6187685;28;19929;-53
2022/05/09 00:36:26;;;;;;;;;;;22.80;47.30;;;;;;6188045;28;19921;-55
2022/05/09 00:39:28;;;;;;;;;;;22.80;47.30;;;;;;6188295;28;19994;-51
2022/05/09 00:42:31;;;;;;;;;;;23.20;47.70;;;;;;6189551;28;19953;-53
2022/05/09 00:45:32;;;;;;;;;;;23.10;47.50;;;;;;6188478;28;20072;-53
2022/05/09 00:48:34;;;;;;;;;;;23.10;47.50;;;;;;6185667;28;20027;-53
2022/05/09 00:51:36;;;;;;;;;;;23.00;47.40;;;;;;6187546;28;19925;-54
2022/05/09 00:54:40;;;;;;;;;;;23.20;47.60;;;;;;6188112;28;20042;-52
2022/05/09 00:57:45;;;;;;;;;;;22.80;47.30;;;;;;6189393;28;20046;-54
2022/05/09 01:00:48;;;;;;;;;;;22.80;47.30;;;;;;6169350;28;19928;-54
2022/05/09 01:03:51;;;;;;;;;;;22.80;47.40;;;;;;6189352;28;20003;-53
2022/05/09 01:06:53;;;;;;;;;;;23.10;47.50;;;;;;6188914;28;19929;-54
2022/05/09 01:09:54;;;;;;;;;;;23.20;47.60;;;;;;6190520;28;19936;-52
2022/05/09 01:12:56;;;;;;;;;;;23.10;47.60;;;;;;6194000;28;19929;-52
2022/05/09 01:15:58;;;;;;;;;;;22.80;47.40;;;;;;6187321;28;19928;-54
2022/05/09 01:19:03;;;;;;;;;;;23.00;47.60;;;;;;6191968;28;19974;-56
2022/05/09 01:22:17;;;;;;;;;;;22.60;47.30;;;;;;6189991;28;20048;-55
2022/05/09 01:25:18;;;;;;;;;;;22.90;46.90;;;;;;6192411;28;21051;-54
2022/05/09 01:28:20;;;;;;;;;;;22.90;47.50;;;;;;6186248;28;19982;-53
2022/05/09 01:31:21;;;;;;;;;;;23.10;47.60;;;;;;6192139;28;19929;-55
2022/05/09 01:34:23;;;;;;;;;;;22.70;47.40;;;;;;6191280;28;20944;-53
2022/05/09 01:37:25;;;;;;;;;;;23.10;47.60;;;;;;6190262;28;19958;-53
2022/05/09 01:40:26;;;;;;;;;;;22.90;47.50;;;;;;6189832;28;19928;-50
2022/05/09 01:43:29;;;;;;;;;;;22.60;47.50;;;;;;6190733;28;20733;-55
2022/05/09 01:46:30;;;;;;;;;;;22.70;47.40;;;;;;6186690;28;19929;-54
2022/05/09 01:49:34;;;;;;;;;;;23.10;47.60;;;;;;6194550;28;19925;-53
2022/05/09 01:52:36;;;;;;;;;;;22.70;47.40;;;;;;6174418;28;20039;-51
2022/05/09 01:55:37;;;;;;;;;;;22.70;47.50;;;;;;6190549;28;19968;-51
2022/05/09 01:58:39;;;;;;;;;;;22.60;47.50;;;;;;6186659;28;20752;-52
2022/05/09 02:01:41;;;;;;;;;;;23.00;47.70;;;;;;6187758;28;19936;-53
2022/05/09 02:04:43;;;;;;;;;;;23.10;47.70;;;;;;6190237;28;20667;-54
2022/05/09 02:07:45;;;;;;;;;;;23.00;47.70;;;;;;6188741;28;19936;-55
2022/05/09 02:10:47;;;;;;;;;;;23.20;47.80;;;;;;6188153;28;19924;-55
2022/05/09 02:13:48;;;;;;;;;;;22.90;47.70;;;;;;6185768;28;20649;-54
2022/05/09 02:16:49;;;;;;;;;;;22.40;47.40;;;;;;6189560;28;20036;-54
2022/05/09 02:19:51;;;;;;;;;;;23.00;47.70;;;;;;6190495;28;20684;-49
2022/05/09 02:22:52;;;;;;;;;;;22.60;47.50;;;;;;6188877;28;19960;-54
2022/05/09 02:25:54;;;;;;;;;;;22.70;47.50;;;;;;6188084;28;19964;-53
2022/05/09 02:28:58;;;;;;;;;;;22.70;47.60;;;;;;6188876;28;20810;-51
2022/05/09 02:32:02;;;;;;;;;;;23.10;47.80;;;;;;6188404;28;19968;-52
2022/05/09 02:35:04;;;;;;;;;;;22.50;47.50;;;;;;6186666;28;20521;-51
2022/05/09 02:38:07;;;;;;;;;;;22.80;47.60;;;;;;6189684;28;20354;-52
2022/05/09 02:41:08;;;;;;;;;;;23.00;47.70;;;;;;6171734;28;19951;-51
2022/05/09 02:44:09;;;;;;;;;;;23.00;47.70;;;;;;6188850;28;19921;-54
2022/05/09 02:47:11;;;;;;;;;;;22.60;47.60;;;;;;6188130;28;20036;-54
2022/05/09 02:50:14;;;;;;;;;;;22.70;47.60;;;;;;6189021;28;19924;-54
2022/05/09 02:53:16;;;;;;;;;;;22.60;47.50;;;;;;6190620;28;20047;-55
2022/05/09 02:56:17;;;;;;;;;;;22.70;47.50;;;;;;6190022;28;19962;-54
2022/05/09 02:59:20;;;;;;;;;;;22.70;47.60;;;;;;6191058;28;20055;-52
2022/05/09 03:02:22;;;;;;;;;;;22.90;47.80;;;;;;6186519;28;19959;-55
2022/05/09 03:05:23;;;;;;;;;;;22.70;48.20;;;;;;6189677;28;20002;-52
2022/05/09 03:08:25;;;;;;;;;;;22.90;47.80;;;;;;6187645;28;20040;-53
2022/05/09 03:11:26;;;;;;;;;;;23.10;47.80;;;;;;6189183;28;19929;-53
2022/05/09 03:14:28;;;;;;;;;;;22.90;47.70;;;;;;6190568;28;19921;-53
2022/05/09 03:17:29;;;;;;;;;;;22.80;47.60;;;;;;6189886;28;19984;-52
2022/05/09 03:20:30;;;;;;;;;;;22.90;47.70;;;;;;6190415;28;20765;-55
2022/05/09 03:23:32;;;;;;;;;;;22.40;47.40;;;;;;6184434;28;19988;-51
2022/05/09 03:26:35;;;;;;;;;;;22.90;47.70;;;;;;6171999;28;19929;-54
2022/05/09 03:29:36;;;;;;;;;;;23.10;47.80;;;;;;6184413;28;19979;-53
2022/05/09 03:32:39;;;;;;;;;;;22.70;47.70;;;;;;6192182;28;19990;-50
2022/05/09 03:35:40;;;;;;;;;;;22.80;47.60;;;;;;6171781;28;20799;-54
2022/05/09 03:38:42;;;;;;;;;;;22.80;47.60;;;;;;6192750;28;20043;-53
2022/05/09 03:41:44;;;;;;;;;;;22.60;47.50;;;;;;6196609;28;19928;-56
2022/05/09 03:44:46;;;;;;;;;;;22.80;47.70;;;;;;6190521;28;19921;-56
2022/05/09 03:47:47;;;;;;;;;;;22.60;47.60;;;;;;6187647;28;19935;-52
2022/05/09 03:50:48;;;;;;;;;;;22.80;47.70;;;;;;6185079;28;20912;-54
2022/05/09 03:53:50;;;;;;;;;;;23.00;47.80;;;;;;6184462;28;19972;-49
2022/05/09 03:56:51;;;;;;;;;;;22.80;47.70;;;;;;6189242;28;19929;-52
2022/05/09 03:59:53;;;;;;;;;;;22.70;47.70;;;;;;6183728;28;19955;-53
2022/05/09 04:02:55;;;;;;;;;;;23.00;47.80;;;;;;6186616;28;19961;-54
2022/05/09 04:05:56;;;;;;;;;;;22.50;47.50;;;;;;6181870;28;20043;-53
2022/05/09 04:08:58;;;;;;;;;;;22.70;48.10;;;;;;6183622;28;20032;-52
2022/05/09 04:11:59;;;;;;;;;;;22.50;48.10;;;;;;6186531;28;20028;-53
2022/05/09 04:18:16;;;;;;;;;;;22.60;47.50;;;;;;6184284;28;19933;-54
2022/05/09 04:21:18;;;;;;;;;;;22.80;47.70;;;;;;6182944;28;19936;-55
2022/05/09 04:24:20;;;;;;;;;;;22.40;47.50;;;;;;6185966;28;19928;-51
2022/05/09 04:27:21;;;;;;;;;;;23.20;47.90;;;;;;6182971;28;19929;-54
2022/05/09 04:30:23;;;;;;;;;;;22.50;47.50;;;;;;6185942;28;20035;-52
2022/05/09 04:33:25;;;;;;;;;;;22.90;47.70;;;;;;6184581;28;19929;-53
2022/05/09 04:36:27;;;;;;;;;;;22.50;47.50;;;;;;6185780;28;20664;-53
2022/05/09 04:39:29;;;;;;;;;;;22.90;47.70;;;;;;6174319;28;19932;-51
2022/05/09 04:42:30;;;;;;;;;;;22.40;47.50;;;;;;6185454;28;19936;-54
2022/05/09 04:45:32;;;;;;;;;;;22.90;47.80;;;;;;6186084;28;20063;-50
2022/05/09 04:48:34;;;;;;;;;;;22.40;47.50;;;;;;6166432;28;19929;-55
2022/05/09 04:51:35;;;;;;;;;;;22.50;47.60;;;;;;6186992;28;19975;-55
2022/05/09 04:54:37;;;;;;;;;;;22.40;47.50;;;;;;6186959;28;20031;-54
2022/05/09 04:57:39;;;;;;;;;;;22.40;47.50;;;;;;6182297;28;21078;-55
2022/05/09 05:00:41;;;;;;;;;;;22.50;47.50;;;;;;6165667;28;20021;-54
2022/05/09 05:03:42;;;;;;;;;;;22.60;47.60;;;;;;6165951;28;19935;-51
2022/05/09 05:06:43;;;;;;;;;;;23.00;47.80;;;;;;6183898;28;20027;-55
2022/05/09 05:09:45;;;;;;;;;;;22.60;47.60;;;;;;6173512;28;19921;-54
2022/05/09 05:12:47;;;;;;;;;;;22.60;47.60;;;;;;6178211;28;19972;-51
2022/05/09 05:15:48;;;;;;;;;;;22.80;47.70;;;;;;6178651;28;19932;-51
2022/05/09 05:18:50;;;;;;;;;;;22.70;47.70;;;;;;6168389;28;19937;-55
2022/05/09 05:21:52;;;;;;;;;;;22.50;47.60;;;;;;6193121;28;19927;-56
2022/05/09 05:24:54;;;;;;;;;;;22.60;47.70;;;;;;6190095;28;19925;-52
2022/05/09 05:27:57;;;;;;;;;;;22.60;47.70;;;;;;6191252;28;19929;-54
2022/05/09 05:31:10;;;;;;;;;;;22.60;47.60;;;;;;6188733;28;19925;-53
2022/05/09 05:34:11;;;;;;;;;;;22.60;47.60;;;;;;6188056;28;19929;-55
2022/05/09 05:37:13;;;;;;;;;;;22.20;47.40;;;;;;6176728;28;19929;-53
2022/05/09 05:40:17;;;;;;;;;;;22.40;47.50;;;;;;6150292;28;19979;-53
2022/05/09 05:43:20;;;;;;;;;;;22.60;47.60;;;;;;6171749;28;19929;-52
2022/05/09 05:46:21;;;;;;;;;;;22.70;47.70;;;;;;6175304;28;19929;-52
2022/05/09 05:49:23;;;;;;;;;;;23.00;47.90;;;;;;6172218;28;19925;-54
2022/05/09 05:52:24;;;;;;;;;;;22.50;47.60;;;;;;6175680;28;19936;-51
2022/05/09 05:55:26;;;;;;;;;;;22.50;47.60;;;;;;6176049;28;19936;-54
2022/05/09 05:58:28;;;;;;;;;;;22.40;47.50;;;;;;6172929;28;20945;-53
2022/05/09 06:01:30;;;;;;;;;;;22.80;47.70;;;;;;6165445;28;20821;-52
2022/05/09 06:04:31;;;;;;;;;;;23.10;47.90;;;;;;6166334;28;20043;-54
2022/05/09 06:07:33;;;;;;;;;;;22.70;47.70;;;;;;6167691;28;20031;-52
2022/05/09 06:10:36;;;;;;;;;;;22.60;47.50;;;;;;6161495;28;20836;-53
2022/05/09 06:13:44;;;;;;;;;;;22.40;47.40;;;;;;6159285;28;19929;-51
2022/05/09 06:16:45;;;;;;;;;;;22.40;47.40;;;;;;6136862;28;21869;-52
2022/05/09 06:19:47;;;;;;;;;;;22.80;47.60;;;;;;6142022;28;19971;-52
2022/05/09 06:22:49;;;;;;;;;;;22.70;47.60;;;;;;6153729;28;19929;-53
2022/05/09 06:25:51;;;;;;;;;;;22.70;47.50;;;;;;6157179;28;20938;-50
2022/05/09 06:28:53;;;;;;;;;;;22.60;47.50;;;;;;6156398;28;19929;-53
2022/05/09 06:31:55;;;;;;;;;;;23.00;47.70;;;;;;6123685;28;20014;-49
2022/05/09 06:34:56;;;;;;;;;;;22.80;47.60;;;;;;6141035;28;20127;-52
2022/05/09 06:37:59;;;;;;;;;;;22.40;47.30;;;;;;6121173;28;19936;-55
2022/05/09 06:41:01;;;;;;;;;;;22.60;47.40;;;;;;6123901;28;20011;-54
2022/05/09 06:44:03;;;;;;;;;;;22.60;47.40;;;;;;6115176;28;19929;-53
2022/05/09 06:47:05;;;;;;;;;;;22.60;47.40;;;;;;6099108;28;19928;-52
2022/05/09 06:50:09;;;;;;;;;;;22.90;47.50;;;;;;6130293;28;19999;-52
2022/05/09 06:53:11;;;;;;;;;;;22.80;47.40;;;;;;6092364;28;19935;-51
2022/05/09 06:56:22;;;;;;;;;;;22.90;47.50;;;;;;6055732;28;19956;-53
2022/05/09 06:59:23;;;;;;;;;;;22.70;47.30;;;;;;6033268;28;19974;-51
2022/05/09 07:02:25;;;;;;;;;;;22.80;47.40;;;;;;6062142;28;21672;-53
2022/05/09 07:05:27;;;;;;;;;;;23.10;47.50;;;;;;6044283;28;19929;-53
2022/05/09 07:08:32;;;;;;;;;;;22.90;47.50;;;;;;6021699;28;19936;-50
2022/05/09 07:11:34;;;;;;;;;;;22.90;47.40;;;;;;6019941;28;19935;-55
2022/05/09 07:14:35;;;;;;;;;;;22.80;47.20;;;;;;5981851;28;19933;-54
2022/05/09 07:17:36;;;;;;;;;;;23.00;47.40;;;;;;5982878;28;20453;-50
2022/05/09 07:20:38;;;;;;;;;;;23.00;47.40;;;;;;6027264;28;19971;-51
2022/05/09 07:23:40;;;;;;;;;;;23.00;47.40;;;;;;6013715;28;20017;-55
2022/05/09 07:26:41;;;;;;;;;;;22.90;47.30;;;;;;6008682;28;19929;-54
2022/05/09 07:29:43;;;;;;;;;;;23.00;47.30;;;;;;6007182;28;20004;-55
2022/05/09 07:32:47;;;;;;;;;;;23.10;47.40;;;;;;5986923;28;19928;-52
2022/05/09 07:35:49;;;;;;;;;;;23.10;47.40;;;;;;5995694;28;19933;-52
2022/05/09 07:38:51;;;;;;;;;;;23.10;47.30;;;;;;6011995;28;20059;-50
2022/05/09 07:41:53;;;;;;;;;;;23.10;47.30;;;;;;5989527;28;19929;-54
2022/05/09 07:44:56;;;;;;;;;;;23.00;47.20;;;;;;6001623;28;19928;-50
2022/05/09 07:47:57;;;;;;;;;;;23.20;47.40;;;;;;6024245;28;19928;-56
2022/05/09 07:50:59;;;;;;;;;;;23.10;47.40;;;;;;6013513;28;19979;-55
2022/05/09 07:54:00;;;;;;;;;;;23.00;47.30;;;;;;6032780;28;19936;-55
2022/05/09 07:57:02;;;;;;;;;;;23.20;47.30;;;;;;6041598;28;20007;-52
2022/05/09 08:00:05;;;;;;;;;;;23.20;47.30;;;;;;6006622;28;20015;-56
2022/05/09 08:03:14;;;;;;;;;;;23.10;46.60;;;;;;5962774;28;19935;-55
2022/05/09 08:06:16;;;;;;;;;;;23.20;47.20;;;;;;5991636;28;19936;-52
2022/05/09 08:09:43;;;;;;;;;;;23.20;47.20;;;;;;6035380;28;19933;-53
2022/05/09 08:12:46;;;;;;;;;;;23.30;47.20;;;;;;6034876;28;20015;-53
2022/05/09 08:15:47;;;;;;;;;;;23.20;47.20;;;;;;6026538;28;19968;-52
2022/05/09 08:18:49;;;;;;;;;;;23.20;47.10;;;;;;6039717;28;19929;-56
2022/05/09 08:21:52;;;;;;;;;;;23.20;47.10;;;;;;6044316;28;19944;-52
2022/05/09 08:25:00;;;;;;;;;;;23.20;47.10;;;;;;6035232;28;20076;-51
2022/05/09 08:28:08;;;;;;;;;;;23.30;47.10;;;;;;6016886;28;19929;-54
2022/05/09 08:31:10;;;;;;;;;;;23.40;47.10;;;;;;6045129;28;21536;-51
2022/05/09 08:34:12;;;;;;;;;;;23.40;47.10;;;;;;6037107;28;20086;-52
2022/05/09 08:37:14;;;;;;;;;;;23.00;46.90;;;;;;6018014;28;19928;-55
2022/05/09 08:40:17;;;;;;;;;;;23.40;47.10;;;;;;6033489;28;19968;-54
2022/05/09 08:43:24;;;;;;;;;;;23.30;47.00;;;;;;6032146;28;19950;-52
2022/05/09 08:46:31;;;;;;;;;;;23.30;47.00;;;;;;6016031;28;19929;-52
2022/05/09 08:49:40;;;;;;;;;;;23.40;47.00;;;;;;6025246;28;19936;-56
2022/05/09 08:52:45;;;;;;;;;;;23.50;47.00;;;;;;6037886;28;19991;-52
2022/05/09 08:55:48;;;;;;;;;;;23.70;47.10;;;;;;6009741;28;19936;-54
2022/05/09 08:58:55;;;;;;;;;;;23.50;47.00;;;;;;6032205;28;19979;-54
2022/05/09 09:02:03;;;;;;;;;;;23.30;46.90;;;;;;6037260;28;19985;-51
2022/05/09 09:05:09;;;;;;;;;;;23.50;47.00;;;;;;6014343;28;19936;-50
2022/05/09 09:08:17;;;;;;;;;;;23.50;47.00;;;;;;6020961;28;21620;-50
2022/05/09 09:11:22;;;;;;;;;;;23.60;47.00;;;;;;6032519;28;20806;-53
2022/05/09 09:14:32;;;;;;;;;;;23.70;47.00;;;;;;6040808;28;21250;-54
2022/05/09 09:17:39;;;;;;;;;;;23.40;46.80;;;;;;6035836;28;21037;-52
2022/05/09 09:20:47;;;;;;;;;;;23.60;46.90;;;;;;6010304;28;19928;-51
2022/05/09 09:24:05;;;;;;;;;;;23.60;46.90;;;;;;6034738;28;19929;-56
2022/05/09 09:27:15;;;;;;;;;;;23.70;46.90;;;;;;6005062;28;20039;-57
2022/05/09 09:30:22;;;;;;;;;;;23.90;47.10;;;;;;6012084;28;20055;-52
2022/05/09 09:33:23;;;;;;;;;;;23.50;46.80;;;;;;5980396;28;19998;-55
2022/05/09 09:36:31;;;;;;;;;;;23.60;46.80;;;;;;6013023;28;20099;-52
2022/05/09 09:39:32;;;;;;;;;;;23.80;46.90;;;;;;6013570;28;19972;-53
2022/05/09 09:42:34;;;;;;;;;;;23.70;46.80;;;;;;6017660;28;21171;-53
2022/05/09 09:45:40;;;;;;;;;;;23.80;46.90;;;;;;6038029;28;20328;-55
2022/05/09 09:48:43;;;;;;;;;;;23.80;46.90;;;;;;6009848;28;20070;-56
2022/05/09 09:51:45;;;;;;;;;;;23.90;47.00;;;;;;6030442;28;20735;-54
2022/05/09 09:54:49;;;;;;;;;;;23.70;46.90;;;;;;6028559;28;20057;-55
2022/05/09 09:57:51;;;;;;;;;;;24.00;47.10;;;;;;6017233;28;20042;-55
2022/05/09 10:01:01;;;;;;;;;;;23.70;47.60;;;;;;5972841;28;19982;-50
2022/05/09 10:04:05;;;;;;;;;;;23.90;47.10;;;;;;6014962;28;19936;-52
2022/05/09 10:07:08;;;;;;;;;;;23.70;47.00;;;;;;6039294;28;20924;-54
2022/05/09 10:10:12;;;;;;;;;;;23.80;47.10;;;;;;6026858;28;19929;-55
2022/05/09 10:13:22;;;;;;;;;;;23.80;47.10;;;;;;6031539;28;19929;-51
2022/05/09 10:16:27;;;;;;;;;;;23.90;47.10;;;;;;6051188;28;19936;-50
2022/05/09 10:19:30;;;;;;;;;;;23.80;47.10;;;;;;6045223;28;22163;-54
2022/05/09 10:25:56;;;;;;;;;;;23.80;47.10;;;;;;6065029;28;20056;-52
2022/05/09 10:28:58;;;;;;;;;;;23.90;47.10;;;;;;6073747;28;20048;-51
2022/05/09 10:32:02;;;;;;;;;;;23.90;47.20;;;;;;6056024;28;19937;-54
2022/05/09 10:35:08;;;;;;;;;;;23.90;47.20;;;;;;6075583;28;19929;-53
2022/05/09 10:38:13;;;;;;;;;;;23.80;47.00;;;;;;6057285;28;19936;-53
2022/05/09 10:41:20;;;;;;;;;;;23.60;47.10;;;;;;6075662;28;23191;-50
2022/05/09 10:44:27;;;;;;;;;;;23.90;47.10;;;;;;6097205;28;22383;-53
2022/05/09 10:47:33;;;;;;;;;;;24.10;47.10;;;;;;6086473;28;19929;-53
2022/05/09 10:50:41;;;;;;;;;;;23.90;47.10;;;;;;6089520;28;20023;-52
2022/05/09 10:53:46;;;;;;;;;;;23.80;46.90;;;;;;6062513;28;19929;-54
2022/05/09 10:56:50;;;;;;;;;;;23.90;47.00;;;;;;6106045;28;19936;-54
2022/05/09 10:59:53;;;;;;;;;;;23.90;47.00;;;;;;6099794;28;19929;-53
2022/05/09 11:03:03;;;;;;;;;;;23.90;46.90;;;;;;6081928;28;20006;-54
2022/05/09 11:06:14;;;;;;;;;;;24.00;47.00;;;;;;6098257;28;19928;-51
2022/05/09 11:09:30;;;;;;;;;;;23.90;46.90;;;;;;6081760;28;21929;-52
2022/05/09 11:12:42;;;;;;;;;;;23.90;46.80;;;;;;6085026;28;20974;-51
2022/05/09 11:15:56;;;;;;;;;;;24.00;46.90;;;;;;6096538;28;19928;-55
2022/05/09 11:19:04;;;;;;;;;;;24.00;46.90;;;;;;6092118;28;20241;-54
2022/05/09 11:22:12;;;;;;;;;;;23.70;46.70;;;;;;6090153;28;19929;-53
2022/05/09 11:25:21;;;;;;;;;;;24.00;46.80;;;;;;6068474;28;20532;-56
2022/05/09 11:28:34;;;;;;;;;;;24.00;46.80;;;;;;6095654;28;19988;-52
2022/05/09 11:31:44;;;;;;;;;;;23.80;46.70;;;;;;6053445;28;20641;-54
2022/05/09 11:34:54;;;;;;;;;;;24.00;46.80;;;;;;6067137;28;21997;-51
2022/05/09 11:38:04;;;;;;;;;;;24.00;46.80;;;;;;6068457;28;19972;-56
2022/05/09 11:41:11;;;;;;;;;;;24.00;46.90;;;;;;6066197;28;19936;-51
2022/05/09 11:44:14;;;;;;;;;;;24.10;46.80;;;;;;6064086;28;19929;-54
2022/05/09 11:47:21;;;;;;;;;;;24.00;46.70;;;;;;6043080;28;19929;-53
2022/05/09 11:50:29;;;;;;;;;;;24.10;46.80;;;;;;6033824;28;19932;-55
2022/05/09 11:53:32;;;;;;;;;;;24.00;46.70;;;;;;6036777;28;21154;-53
2022/05/09 11:56:35;;;;;;;;;;;24.00;46.70;;;;;;6040660;28;19969;-52
2022/05/09 11:59:37;;;;;;;;;;;24.00;46.70;;;;;;5999374;28;19936;-54
2022/05/09 12:02:49;;;;;;;;;;;24.00;47.00;;;;;;5995813;28;20825;-55
2022/05/09 12:05:59;;;;;;;;;;;24.10;46.60;;;;;;5977025;28;19929;-53
2022/05/09 12:09:04;;;;;;;;;;;24.20;46.60;;;;;;5998705;28;19929;-53
2022/05/09 12:12:05;;;;;;;;;;;24.20;46.70;;;;;;5999524;28;20216;-53
2022/05/09 12:15:08;;;;;;;;;;;24.50;46.80;;;;;;6022321;28;19929;-52
2022/05/09 12:18:17;;;;;;;;;;;24.10;46.60;;;;;;6029255;28;20071;-54
2022/05/09 12:21:21;;;;;;;;;;;24.00;46.60;;;;;;6013135;28;19937;-53
2022/05/09 12:24:31;;;;;;;;;;;24.20;46.60;;;;;;6020250;28;20015;-54
2022/05/09 12:27:46;;;;;;;;;;;24.10;46.60;;;;;;6031225;28;19933;-53
2022/05/09 12:30:48;;;;;;;;;;;24.20;46.70;;;;;;6020915;28;19929;-56
2022/05/09 12:33:51;;;;;;;;;;;24.10;46.60;;;;;;6012677;28;19933;-54
2022/05/09 12:36:54;;;;;;;;;;;23.90;46.80;;;;;;6016112;28;19933;-52
2022/05/09 12:39:55;;;;;;;;;;;24.00;46.60;;;;;;6012032;28;20049;-54
2022/05/09 12:43:00;;;;;;;;;;;24.10;46.60;;;;;;6005402;28;22397;-52
2022/05/09 12:46:27;;;;;;;;;;;24.10;46.50;;;;;;5995482;28;20071;-54
2022/05/09 12:49:33;;;;;;;;;;;24.00;46.40;;;;;;5999367;28;19929;-52
2022/05/09 12:52:37;;;;;;;;;;;24.00;46.50;;;;;;6032600;28;20171;-54
2022/05/09 12:55:55;;;;;;;;;;;24.00;46.50;;;;;;6008723;28;19929;-54
2022/05/09 12:59:01;;;;;;;;;;;24.00;46.50;;;;;;6014815;28;19932;-52
2022/05/09 13:02:04;;;;;;;;;;;24.10;46.50;;;;;;5987247;28;20853;-50
2022/05/09 13:05:35;;;;;;;;;;;24.10;46.50;;;;;;5989545;28;21601;-51
2022/05/09 13:08:37;;;;;;;;;;;24.10;46.50;;;;;;6023156;28;19972;-51
2022/05/09 13:11:38;;;;;;;;;;;24.10;46.40;;;;;;6001119;28;19929;-53
2022/05/09 13:14:41;;;;;;;;;;;24.20;46.50;;;;;;6012756;28;19929;-54
2022/05/09 13:17:45;;;;;;;;;;;24.00;46.30;;;;;;6021741;28;20381;-55
2022/05/09 13:20:49;;;;;;;;;;;24.20;46.30;;;;;;6034344;28;20068;-56
2022/05/09 13:23:51;;;;;;;;;;;24.10;46.30;;;;;;6023192;28;21278;-55
2022/05/09 13:26:54;;;;;;;;;;;24.20;46.30;;;;;;5988012;28;19971;-53
2022/05/09 13:29:55;;;;;;;;;;;24.10;46.20;;;;;;6023937;28;19933;-60
2022/05/09 13:32:57;;;;;;;;;;;24.10;46.30;;;;;;6007092;28;19929;-51
2022/05/09 13:36:03;;;;;;;;;;;23.90;46.10;;;;;;6025695;28;19945;-51
2022/05/09 13:39:05;;;;;;;;;;;24.10;46.20;;;;;;5974214;28;19929;-53
2022/05/09 13:42:12;;;;;;;;;;;24.10;46.50;;;;;;6021094;28;21085;-53
2022/05/09 13:45:16;;;;;;;;;;;24.20;46.20;;;;;;6029619;28;19932;-53
2022/05/09 13:48:21;;;;;;;;;;;24.10;46.10;;;;;;6027449;28;19985;-51
2022/05/09 13:51:26;;;;;;;;;;;24.20;46.20;;;;;;6023903;28;19929;-56
2022/05/09 13:54:28;;;;;;;;;;;24.20;46.20;;;;;;6006747;28;19929;-55
2022/05/09 13:57:33;;;;;;;;;;;24.00;46.00;;;;;;6018699;28;19929;-54
2022/05/09 14:00:37;;;;;;;;;;;24.20;46.10;;;;;;6038615;28;19936;-53
2022/05/09 14:03:42;;;;;;;;;;;24.10;46.00;;;;;;5974146;28;19929;-56
2022/05/09 14:06:44;;;;;;;;;;;24.10;46.00;;;;;;6020151;28;19936;-55
2022/05/09 14:09:47;;;;;;;;;;;24.20;46.00;;;;;;6017510;28;20086;-56
2022/05/09 14:12:49;;;;;;;;;;;24.10;45.90;;;;;;6008975;28;21034;-54
2022/05/09 14:15:53;;;;;;;;;;;24.20;46.50;;;;;;5990307;28;19929;-59
2022/05/09 14:18:59;;;;;;;;;;;24.10;45.80;;;;;;6006311;28;20383;-56
2022/05/09 14:22:04;;;;;;;;;;;24.20;45.90;;;;;;6008400;28;20052;-52
2022/05/09 14:31:45;;;;;;;;;;;24.20;45.70;;;;;;5976745;28;19929;-54
2022/05/09 14:34:56;;;;;;;;;;;24.30;45.80;;;;;;6036881;28;20041;-53
2022/05/09 14:37:57;;;;;;;;;;;24.30;45.80;;;;;;5997776;28;19936;-51
2022/05/09 14:41:36;;;;;;;;;;;24.30;45.70;;;;;;6029760;28;19929;-54
2022/05/09 14:44:31;;;;;;;;;;;24.30;45.70;;;;;;6036717;28;19928;-50
2022/05/09 14:47:35;;;;;;;;;;;24.30;45.70;;;;;;6022904;28;19976;-53
2022/05/09 14:50:40;;;;;;;;;;;24.30;45.70;;;;;;6041729;28;19928;-51
2022/05/09 14:53:49;;;;;;;;;;;24.40;45.70;;;;;;6047438;28;19929;-55
2022/05/09 15:00:06;;;;;;;;;;;24.50;45.60;;;;;;6059951;28;19936;-52
2022/05/09 15:03:16;;;;;;;;;;;24.50;45.60;;;;;;6040313;28;19937;-55
2022/05/09 15:06:20;;;;;;;;;;;24.30;45.50;;;;;;6025376;28;19929;-53
2022/05/09 15:09:21;;;;;;;;;;;24.40;45.60;;;;;;6027971;28;20058;-49
2022/05/09 15:12:24;;;;;;;;;;;24.30;45.50;;;;;;6027230;28;19929;-54
2022/05/09 15:15:25;;;;;;;;;;;24.40;45.50;;;;;;6040751;28;19929;-53
2022/05/09 15:18:27;;;;;;;;;;;24.40;45.40;;;;;;6064779;28;19930;-52
2022/05/09 15:21:28;;;;;;;;;;;24.40;45.40;;;;;;6053740;28;19964;-51
2022/05/09 15:24:32;;;;;;;;;;;24.40;46.00;;;;;;6062263;28;20048;-53
2022/05/09 15:27:35;;;;;;;;;;;24.40;45.40;;;;;;6059133;28;19933;-55
2022/05/09 15:30:37;;;;;;;;;;;24.40;45.40;;;;;;6062910;28;19969;-53
2022/05/09 15:33:38;;;;;;;;;;;24.40;45.30;;;;;;6036875;28;20075;-50
2022/05/09 15:36:40;;;;;;;;;;;24.50;45.40;;;;;;6068550;28;19936;-51
2022/05/09 15:40:07;;;;;;;;;;;24.40;45.30;;;;;;6065449;28;19933;-51
2022/05/09 15:43:15;;;;;;;;;;;24.40;45.30;;;;;;6077760;28;20063;-52
2022/05/09 15:46:18;;;;;;;;;;;24.50;45.30;;;;;;6071407;28;19936;-51
2022/05/09 15:49:23;;;;;;;;;;;24.50;45.30;;;;;;6082563;28;20150;-54
2022/05/09 15:52:24;;;;;;;;;;;24.50;45.30;;;;;;6070003;28;19929;-51
2022/05/09 15:55:26;;;;;;;;;;;24.50;45.30;;;;;;6081670;28;19935;-54
2022/05/09 15:58:30;;;;;;;;;;;24.50;45.20;;;;;;6098641;28;19929;-52
2022/05/09 16:01:33;;;;;;;;;;;24.50;45.30;;;;;;6077802;28;19970;-54
2022/05/09 16:04:34;;;;;;;;;;;24.60;45.20;;;;;;6074336;28;19929;-52
2022/05/09 16:14:09;;;;;;;;;;;24.60;45.20;;;;;;6081877;28;19935;-54
2022/05/09 16:17:11;;;;;;;;;;;24.50;45.10;;;;;;6104379;28;19929;-51
2022/05/09 16:20:14;;;;;;;;;;;24.60;45.10;;;;;;6107494;28;21895;-53
2022/05/09 16:23:18;;;;;;;;;;;24.60;45.10;;;;;;6106758;28;20069;-55
2022/05/09 16:26:20;;;;;;;;;;;24.70;45.00;;;;;;6109523;28;20042;-55
2022/05/09 16:29:22;;;;;;;;;;;24.60;45.00;;;;;;6117034;28;19968;-53
2022/05/09 16:32:24;;;;;;;;;;;24.60;44.90;;;;;;6132187;28;19936;-51
2022/05/09 16:35:25;;;;;;;;;;;24.70;45.00;;;;;;6135974;28;19961;-55
2022/05/09 16:38:27;;;;;;;;;;;24.50;44.80;;;;;;6134973;28;19929;-56
2022/05/09 16:41:29;;;;;;;;;;;24.70;44.90;;;;;;6136035;28;19936;-55
2022/05/09 16:44:32;;;;;;;;;;;24.60;44.90;;;;;;6137532;28;20768;-52
2022/05/09 16:47:36;;;;;;;;;;;24.70;44.90;;;;;;6125134;28;21046;-53
2022/05/09 16:50:38;;;;;;;;;;;24.80;44.90;;;;;;6134239;28;20495;-53
2022/05/09 16:53:39;;;;;;;;;;;24.50;44.80;;;;;;6127295;28;19929;-52
2022/05/09 16:57:06;;;;;;;;;;;24.70;44.90;;;;;;6143121;28;20015;-55
2022/05/09 17:00:10;;;;;;;;;;;24.70;44.80;;;;;;6144765;28;20130;-54
2022/05/09 17:03:13;;;;;;;;;;;24.90;44.90;;;;;;6134814;28;19937;-52
2022/05/09 17:06:15;;;;;;;;;;;24.70;44.80;;;;;;6158710;28;19936;-52
2022/05/09 17:09:17;;;;;;;;;;;24.60;44.70;;;;;;6157990;28;19929;-53
2022/05/09 17:12:19;;;;;;;;;;;24.80;44.80;;;;;;6154525;28;19947;-54
2022/05/09 17:15:24;;;;;;;;;;;24.80;44.70;;;;;;6160538;28;19995;-55
2022/05/09 17:18:25;;;;;;;;;;;24.70;44.70;;;;;;6144836;28;20385;-53
2022/05/09 17:21:29;;;;;;;;;;;24.60;44.60;;;;;;6165193;28;19935;-54
2022/05/09 17:24:31;;;;;;;;;;;24.80;44.70;;;;;;6163674;28;19967;-53
2022/05/09 17:27:34;;;;;;;;;;;24.80;44.70;;;;;;6151047;28;19932;-53
2022/05/09 17:30:36;;;;;;;;;;;24.60;44.60;;;;;;6143159;28;21254;-53
2022/05/09 17:33:53;;;;;;;;;;;24.70;44.60;;;;;;6145285;28;19929;-52
2022/05/09 17:40:11;;;;;;;;;;;24.80;44.60;;;;;;6133422;28;20059;-55
2022/05/09 17:43:13;;;;;;;;;;;24.90;44.80;;;;;;6158734;28;20237;-53
2022/05/09 17:46:19;;;;;;;;;;;24.80;44.70;;;;;;6163843;28;19929;-54
2022/05/09 17:49:21;;;;;;;;;;;24.80;44.90;;;;;;6162315;28;19935;-53
2022/05/09 17:52:23;;;;;;;;;;;24.70;44.80;;;;;;6163731;28;19999;-49
2022/05/09 17:55:25;;;;;;;;;;;24.70;44.80;;;;;;6170090;28;19936;-50
2022/05/09 17:58:28;;;;;;;;;;;24.50;44.80;;;;;;6171497;28;20042;-59
2022/05/09 18:01:31;;;;;;;;;;;24.70;44.90;;;;;;6175424;28;19929;-54
2022/05/09 18:04:33;;;;;;;;;;;24.70;44.80;;;;;;6152555;28;19932;-55
2022/05/09 18:07:35;;;;;;;;;;;24.70;44.90;;;;;;6152672;28;19929;-55
2022/05/09 18:10:38;;;;;;;;;;;24.70;44.80;;;;;;6165293;28;19933;-55
2022/05/09 18:13:41;;;;;;;;;;;24.60;44.70;;;;;;6172340;28;19960;-53
2022/05/09 18:16:45;;;;;;;;;;;24.70;45.40;;;;;;6157818;28;19964;-52